sensor_id;sensor_type;location;lat;lon;timestamp;P1;durP1;ratioP1;P2;durP2;ratioP2
19057;SDS011;9662;53.612;9.914;2022-09-17T00:01:01;16.23;;;2.70;;
19057;SDS011;9662;53.612;9.914;2022-09-17T00:03:29;9.75;;;2.65;;
19057;SDS011;9662;53.612;9.914;2022-09-17T00:05:57;18.50;;;3.33;;
19057;SDS011;9662;53.612;9.914;2022-09-17T00:08:25;11.93;;;2.73;;
19057;SDS011;9662;53.612;9.914;2022-09-17T00:10:53;14.98;;;2.50;;
19057;SDS011;9662;53.612;9.914;2022-09-17T00:13:20;19.83;;;2.83;;
19057;SDS011;9662;53.612;9.914;2022-09-17T00:15:47;7.63;;;2.13;;
19057;SDS011;9662;53.612;9.914;2022-09-17T00:18:15;17.83;;;3.20;;
19057;SDS011;9662;53.612;9.914;2022-09-17T00:20:42;9.57;;;2.40;;
19057;SDS011;9662;53.612;9.914;2022-09-17T00:23:11;13.98;;;2.80;;
19057;SDS011;9662;53.612;9.914;2022-09-17T00:25:39;9.00;;;2.45;;
19057;SDS011;9662;53.612;9.914;2022-09-17T00:28:09;9.07;;;2.42;;
19057;SDS011;9662;53.612;9.914;2022-09-17T00:30:38;15.20;;;2.50;;
19057;SDS011;9662;53.612;9.914;2022-09-17T00:33:04;12.55;;;2.67;;
19057;SDS011;9662;53.612;9.914;2022-09-17T00:35:31;15.25;;;2.53;;
19057;SDS011;9662;53.612;9.914;2022-09-17T00:37:58;16.40;;;2.73;;
19057;SDS011;9662;53.612;9.914;2022-09-17T00:40:25;13.18;;;2.88;;
19057;SDS011;9662;53.612;9.914;2022-09-17T00:42:51;13.70;;;2.67;;
19057;SDS011;9662;53.612;9.914;2022-09-17T00:45:20;15.52;;;3.03;;
19057;SDS011;9662;53.612;9.914;2022-09-17T00:47:49;14.17;;;2.70;;
19057;SDS011;9662;53.612;9.914;2022-09-17T00:50:20;14.17;;;2.63;;
19057;SDS011;9662;53.612;9.914;2022-09-17T00:52:53;13.10;;;3.25;;
19057;SDS011;9662;53.612;9.914;2022-09-17T00:55:24;11.25;;;2.30;;
19057;SDS011;9662;53.612;9.914;2022-09-17T00:57:54;10.85;;;2.30;;
19057;SDS011;9662;53.612;9.914;2022-09-17T01:00:24;9.43;;;2.25;;
19057;SDS011;9662;53.612;9.914;2022-09-17T01:02:52;11.43;;;2.20;;
19057;SDS011;9662;53.612;9.914;2022-09-17T01:05:20;7.78;;;1.98;;
19057;SDS011;9662;53.612;9.914;2022-09-17T01:07:56;13.15;;;2.72;;
19057;SDS011;9662;53.612;9.914;2022-09-17T01:10:35;12.23;;;3.35;;
19057;SDS011;9662;53.612;9.914;2022-09-17T01:13:14;7.95;;;2.20;;
19057;SDS011;9662;53.612;9.914;2022-09-17T01:15:53;11.73;;;2.78;;
19057;SDS011;9662;53.612;9.914;2022-09-17T01:18:30;10.55;;;2.30;;
19057;SDS011;9662;53.612;9.914;2022-09-17T01:21:15;5.22;;;2.22;;
19057;SDS011;9662;53.612;9.914;2022-09-17T01:24:27;11.60;;;2.53;;
19057;SDS011;9662;53.612;9.914;2022-09-17T01:30:16;10.23;;;2.92;;
19057;SDS011;9662;53.612;9.914;2022-09-17T01:32:49;10.57;;;2.30;;
19057;SDS011;9662;53.612;9.914;2022-09-17T01:35:24;11.70;;;2.08;;
19057;SDS011;9662;53.612;9.914;2022-09-17T01:38:00;8.77;;;2.30;;
19057;SDS011;9662;53.612;9.914;2022-09-17T01:40:33;5.47;;;1.83;;
19057;SDS011;9662;53.612;9.914;2022-09-17T01:43:05;11.15;;;2.60;;
19057;SDS011;9662;53.612;9.914;2022-09-17T01:45:34;9.63;;;2.03;;
19057;SDS011;9662;53.612;9.914;2022-09-17T01:48:08;9.68;;;2.30;;
19057;SDS011;9662;53.612;9.914;2022-09-17T01:50:38;10.57;;;2.88;;
19057;SDS011;9662;53.612;9.914;2022-09-17T01:53:07;6.55;;;1.95;;
19057;SDS011;9662;53.612;9.914;2022-09-17T01:55:37;11.05;;;2.88;;
19057;SDS011;9662;53.612;9.914;2022-09-17T01:58:06;6.93;;;2.10;;
19057;SDS011;9662;53.612;9.914;2022-09-17T02:00:38;7.47;;;2.28;;
19057;SDS011;9662;53.612;9.914;2022-09-17T02:03:08;8.93;;;2.50;;
19057;SDS011;9662;53.612;9.914;2022-09-17T02:05:42;11.52;;;2.63;;
19057;SDS011;9662;53.612;9.914;2022-09-17T02:08:13;15.35;;;2.90;;
19057;SDS011;9662;53.612;9.914;2022-09-17T02:10:43;6.78;;;2.65;;
19057;SDS011;9662;53.612;9.914;2022-09-17T02:13:13;8.50;;;1.98;;
19057;SDS011;9662;53.612;9.914;2022-09-17T02:15:44;10.35;;;2.78;;
19057;SDS011;9662;53.612;9.914;2022-09-17T02:18:21;9.52;;;2.45;;
19057;SDS011;9662;53.612;9.914;2022-09-17T02:20:53;7.97;;;2.55;;
19057;SDS011;9662;53.612;9.914;2022-09-17T02:23:28;8.25;;;2.20;;
19057;SDS011;9662;53.612;9.914;2022-09-17T02:25:59;13.25;;;2.63;;
19057;SDS011;9662;53.612;9.914;2022-09-17T02:28:32;14.43;;;2.95;;
19057;SDS011;9662;53.612;9.914;2022-09-17T02:31:05;13.13;;;2.30;;
19057;SDS011;9662;53.612;9.914;2022-09-17T02:33:34;8.25;;;1.98;;
19057;SDS011;9662;53.612;9.914;2022-09-17T02:36:02;13.87;;;2.30;;
19057;SDS011;9662;53.612;9.914;2022-09-17T02:38:30;8.65;;;2.25;;
19057;SDS011;9662;53.612;9.914;2022-09-17T02:41:00;7.47;;;2.22;;
19057;SDS011;9662;53.612;9.914;2022-09-17T02:43:38;10.48;;;2.20;;
19057;SDS011;9662;53.612;9.914;2022-09-17T02:46:17;6.55;;;2.13;;
19057;SDS011;9662;53.612;9.914;2022-09-17T02:49:08;6.80;;;2.17;;
19057;SDS011;9662;53.612;9.914;2022-09-17T02:51:46;12.02;;;2.20;;
19057;SDS011;9662;53.612;9.914;2022-09-17T02:54:23;12.20;;;2.70;;
19057;SDS011;9662;53.612;9.914;2022-09-17T02:56:56;15.95;;;2.20;;
19057;SDS011;9662;53.612;9.914;2022-09-17T02:59:34;6.03;;;1.98;;
19057;SDS011;9662;53.612;9.914;2022-09-17T03:02:07;8.70;;;2.38;;
19057;SDS011;9662;53.612;9.914;2022-09-17T03:04:42;7.40;;;2.13;;
19057;SDS011;9662;53.612;9.914;2022-09-17T03:07:11;10.77;;;2.50;;
19057;SDS011;9662;53.612;9.914;2022-09-17T03:09:39;9.13;;;2.05;;
19057;SDS011;9662;53.612;9.914;2022-09-17T03:12:07;6.32;;;2.40;;
19057;SDS011;9662;53.612;9.914;2022-09-17T03:14:34;5.47;;;2.08;;
19057;SDS011;9662;53.612;9.914;2022-09-17T03:17:01;5.65;;;1.92;;
19057;SDS011;9662;53.612;9.914;2022-09-17T03:19:28;10.85;;;1.98;;
19057;SDS011;9662;53.612;9.914;2022-09-17T03:21:56;6.93;;;2.45;;
19057;SDS011;9662;53.612;9.914;2022-09-17T03:24:23;7.37;;;2.13;;
19057;SDS011;9662;53.612;9.914;2022-09-17T03:26:51;7.15;;;2.08;;
19057;SDS011;9662;53.612;9.914;2022-09-17T03:29:17;12.60;;;2.15;;
19057;SDS011;9662;53.612;9.914;2022-09-17T03:31:44;9.65;;;2.40;;
19057;SDS011;9662;53.612;9.914;2022-09-17T03:34:11;10.57;;;2.17;;
19057;SDS011;9662;53.612;9.914;2022-09-17T03:36:38;7.35;;;2.20;;
19057;SDS011;9662;53.612;9.914;2022-09-17T03:39:06;11.77;;;2.13;;
19057;SDS011;9662;53.612;9.914;2022-09-17T03:41:32;8.15;;;2.05;;
19057;SDS011;9662;53.612;9.914;2022-09-17T03:43:59;9.45;;;2.25;;
19057;SDS011;9662;53.612;9.914;2022-09-17T03:46:26;7.70;;;2.17;;
19057;SDS011;9662;53.612;9.914;2022-09-17T03:48:53;7.17;;;2.23;;
19057;SDS011;9662;53.612;9.914;2022-09-17T03:51:20;6.20;;;1.90;;
19057;SDS011;9662;53.612;9.914;2022-09-17T03:53:46;8.82;;;2.25;;
19057;SDS011;9662;53.612;9.914;2022-09-17T03:56:15;3.72;;;1.70;;
19057;SDS011;9662;53.612;9.914;2022-09-17T03:58:41;6.97;;;2.08;;
19057;SDS011;9662;53.612;9.914;2022-09-17T04:01:08;6.97;;;2.13;;
19057;SDS011;9662;53.612;9.914;2022-09-17T04:03:35;7.80;;;1.90;;
19057;SDS011;9662;53.612;9.914;2022-09-17T04:06:02;8.70;;;2.35;;
19057;SDS011;9662;53.612;9.914;2022-09-17T04:08:29;9.37;;;2.20;;
19057;SDS011;9662;53.612;9.914;2022-09-17T04:10:56;6.00;;;1.92;;
19057;SDS011;9662;53.612;9.914;2022-09-17T04:13:24;6.03;;;1.80;;
19057;SDS011;9662;53.612;9.914;2022-09-17T04:15:51;6.20;;;1.60;;
19057;SDS011;9662;53.612;9.914;2022-09-17T04:18:18;7.10;;;2.28;;
19057;SDS011;9662;53.612;9.914;2022-09-17T04:20:44;3.72;;;1.67;;
19057;SDS011;9662;53.612;9.914;2022-09-17T04:23:11;8.18;;;2.13;;
19057;SDS011;9662;53.612;9.914;2022-09-17T04:25:38;7.20;;;2.08;;
19057;SDS011;9662;53.612;9.914;2022-09-17T04:28:04;9.18;;;2.00;;
19057;SDS011;9662;53.612;9.914;2022-09-17T04:30:33;6.03;;;2.20;;
19057;SDS011;9662;53.612;9.914;2022-09-17T04:32:59;10.95;;;2.35;;
19057;SDS011;9662;53.612;9.914;2022-09-17T04:35:26;6.70;;;1.67;;
19057;SDS011;9662;53.612;9.914;2022-09-17T04:37:53;5.68;;;2.17;;
19057;SDS011;9662;53.612;9.914;2022-09-17T04:40:20;3.87;;;2.00;;
19057;SDS011;9662;53.612;9.914;2022-09-17T04:42:47;7.50;;;2.05;;
19057;SDS011;9662;53.612;9.914;2022-09-17T04:45:17;7.55;;;2.05;;
19057;SDS011;9662;53.612;9.914;2022-09-17T04:47:45;3.90;;;1.67;;
19057;SDS011;9662;53.612;9.914;2022-09-17T04:50:11;9.02;;;1.80;;
19057;SDS011;9662;53.612;9.914;2022-09-17T04:52:40;7.13;;;2.13;;
19057;SDS011;9662;53.612;9.914;2022-09-17T04:55:07;3.73;;;1.73;;
19057;SDS011;9662;53.612;9.914;2022-09-17T04:57:34;6.18;;;2.15;;
19057;SDS011;9662;53.612;9.914;2022-09-17T05:00:01;4.07;;;2.13;;
19057;SDS011;9662;53.612;9.914;2022-09-17T05:02:30;7.47;;;2.20;;
19057;SDS011;9662;53.612;9.914;2022-09-17T05:04:58;8.10;;;1.80;;
19057;SDS011;9662;53.612;9.914;2022-09-17T05:07:25;7.73;;;1.90;;
19057;SDS011;9662;53.612;9.914;2022-09-17T05:09:52;8.07;;;1.67;;
19057;SDS011;9662;53.612;9.914;2022-09-17T05:12:18;7.25;;;2.60;;
19057;SDS011;9662;53.612;9.914;2022-09-17T05:14:45;5.90;;;1.75;;
19057;SDS011;9662;53.612;9.914;2022-09-17T05:17:12;3.65;;;1.80;;
19057;SDS011;9662;53.612;9.914;2022-09-17T05:19:39;4.90;;;1.67;;
19057;SDS011;9662;53.612;9.914;2022-09-17T05:22:07;6.50;;;1.73;;
19057;SDS011;9662;53.612;9.914;2022-09-17T05:24:33;7.43;;;1.77;;
19057;SDS011;9662;53.612;9.914;2022-09-17T05:27:03;8.30;;;1.88;;
19057;SDS011;9662;53.612;9.914;2022-09-17T05:29:30;7.57;;;2.05;;
19057;SDS011;9662;53.612;9.914;2022-09-17T05:31:56;9.07;;;2.15;;
19057;SDS011;9662;53.612;9.914;2022-09-17T05:34:23;5.20;;;1.97;;
19057;SDS011;9662;53.612;9.914;2022-09-17T05:36:50;3.97;;;1.33;;
19057;SDS011;9662;53.612;9.914;2022-09-17T05:39:18;8.50;;;1.92;;
19057;SDS011;9662;53.612;9.914;2022-09-17T05:41:46;6.90;;;1.65;;
19057;SDS011;9662;53.612;9.914;2022-09-17T05:44:13;3.47;;;1.63;;
19057;SDS011;9662;53.612;9.914;2022-09-17T05:46:40;8.95;;;1.90;;
19057;SDS011;9662;53.612;9.914;2022-09-17T05:49:06;5.95;;;1.88;;
19057;SDS011;9662;53.612;9.914;2022-09-17T05:51:33;7.10;;;2.20;;
19057;SDS011;9662;53.612;9.914;2022-09-17T05:54:00;7.85;;;2.05;;
19057;SDS011;9662;53.612;9.914;2022-09-17T05:56:28;9.75;;;2.33;;
19057;SDS011;9662;53.612;9.914;2022-09-17T05:58:55;9.90;;;2.28;;
19057;SDS011;9662;53.612;9.914;2022-09-17T06:01:22;9.75;;;2.60;;
19057;SDS011;9662;53.612;9.914;2022-09-17T06:03:49;5.10;;;2.00;;
19057;SDS011;9662;53.612;9.914;2022-09-17T06:06:15;6.45;;;1.85;;
19057;SDS011;9662;53.612;9.914;2022-09-17T06:08:42;9.13;;;2.78;;
19057;SDS011;9662;53.612;9.914;2022-09-17T06:11:09;7.03;;;1.83;;
19057;SDS011;9662;53.612;9.914;2022-09-17T06:13:37;8.25;;;2.08;;
19057;SDS011;9662;53.612;9.914;2022-09-17T06:16:04;5.47;;;1.60;;
19057;SDS011;9662;53.612;9.914;2022-09-17T06:18:31;5.32;;;1.63;;
19057;SDS011;9662;53.612;9.914;2022-09-17T06:20:58;5.13;;;1.75;;
19057;SDS011;9662;53.612;9.914;2022-09-17T06:23:25;12.23;;;2.13;;
19057;SDS011;9662;53.612;9.914;2022-09-17T06:25:53;6.77;;;2.47;;
19057;SDS011;9662;53.612;9.914;2022-09-17T06:28:22;8.40;;;1.80;;
19057;SDS011;9662;53.612;9.914;2022-09-17T06:30:50;7.25;;;1.85;;
19057;SDS011;9662;53.612;9.914;2022-09-17T06:33:18;3.75;;;1.77;;
19057;SDS011;9662;53.612;9.914;2022-09-17T06:35:45;7.25;;;1.80;;
19057;SDS011;9662;53.612;9.914;2022-09-17T06:38:11;10.70;;;1.88;;
19057;SDS011;9662;53.612;9.914;2022-09-17T06:40:38;6.50;;;1.67;;
19057;SDS011;9662;53.612;9.914;2022-09-17T06:43:05;6.95;;;1.73;;
19057;SDS011;9662;53.612;9.914;2022-09-17T06:45:32;2.95;;;1.50;;
19057;SDS011;9662;53.612;9.914;2022-09-17T06:48:03;9.50;;;1.73;;
19057;SDS011;9662;53.612;9.914;2022-09-17T06:50:30;13.18;;;1.80;;
19057;SDS011;9662;53.612;9.914;2022-09-17T06:52:57;6.20;;;1.75;;
19057;SDS011;9662;53.612;9.914;2022-09-17T06:55:24;5.85;;;1.70;;
19057;SDS011;9662;53.612;9.914;2022-09-17T06:57:51;5.70;;;2.17;;
19057;SDS011;9662;53.612;9.914;2022-09-17T07:00:18;1.15;;;1.08;;
19057;SDS011;9662;53.612;9.914;2022-09-17T07:02:53;1.08;;;1.08;;
19057;SDS011;9662;53.612;9.914;2022-09-17T07:05:23;2.97;;;1.23;;
19057;SDS011;9662;53.612;9.914;2022-09-17T07:07:50;6.03;;;1.30;;
19057;SDS011;9662;53.612;9.914;2022-09-17T07:10:17;5.85;;;1.60;;
19057;SDS011;9662;53.612;9.914;2022-09-17T07:12:44;2.80;;;1.10;;
19057;SDS011;9662;53.612;9.914;2022-09-17T07:15:10;2.85;;;1.05;;
19057;SDS011;9662;53.612;9.914;2022-09-17T07:17:39;2.80;;;1.30;;
19057;SDS011;9662;53.612;9.914;2022-09-17T07:20:08;2.45;;;1.05;;
19057;SDS011;9662;53.612;9.914;2022-09-17T07:22:37;1.95;;;1.38;;
19057;SDS011;9662;53.612;9.914;2022-09-17T07:25:04;4.60;;;1.17;;
19057;SDS011;9662;53.612;9.914;2022-09-17T07:27:31;3.93;;;1.30;;
19057;SDS011;9662;53.612;9.914;2022-09-17T07:29:58;3.08;;;1.20;;
19057;SDS011;9662;53.612;9.914;2022-09-17T07:32:25;3.15;;;0.90;;
19057;SDS011;9662;53.612;9.914;2022-09-17T07:34:54;2.60;;;1.70;;
19057;SDS011;9662;53.612;9.914;2022-09-17T07:37:20;2.27;;;1.20;;
19057;SDS011;9662;53.612;9.914;2022-09-17T07:39:48;3.03;;;1.30;;
19057;SDS011;9662;53.612;9.914;2022-09-17T07:42:15;2.17;;;1.15;;
19057;SDS011;9662;53.612;9.914;2022-09-17T07:44:42;3.40;;;1.30;;
19057;SDS011;9662;53.612;9.914;2022-09-17T07:47:09;1.60;;;1.25;;
19057;SDS011;9662;53.612;9.914;2022-09-17T07:49:36;5.27;;;1.13;;
19057;SDS011;9662;53.612;9.914;2022-09-17T07:52:03;2.75;;;1.27;;
19057;SDS011;9662;53.612;9.914;2022-09-17T07:54:30;1.50;;;1.15;;
19057;SDS011;9662;53.612;9.914;2022-09-17T07:56:58;5.40;;;1.52;;
19057;SDS011;9662;53.612;9.914;2022-09-17T07:59:25;2.67;;;1.30;;
19057;SDS011;9662;53.612;9.914;2022-09-17T08:01:52;4.28;;;1.40;;
19057;SDS011;9662;53.612;9.914;2022-09-17T08:04:19;2.40;;;1.50;;
19057;SDS011;9662;53.612;9.914;2022-09-17T08:06:47;4.83;;;1.90;;
19057;SDS011;9662;53.612;9.914;2022-09-17T08:09:14;2.40;;;1.70;;
19057;SDS011;9662;53.612;9.914;2022-09-17T08:11:42;3.22;;;1.08;;
19057;SDS011;9662;53.612;9.914;2022-09-17T08:14:11;5.60;;;1.57;;
19057;SDS011;9662;53.612;9.914;2022-09-17T08:16:39;4.45;;;1.48;;
19057;SDS011;9662;53.612;9.914;2022-09-17T08:19:06;6.35;;;1.75;;
19057;SDS011;9662;53.612;9.914;2022-09-17T08:21:34;5.13;;;1.80;;
19057;SDS011;9662;53.612;9.914;2022-09-17T08:24:01;5.20;;;1.73;;
19057;SDS011;9662;53.612;9.914;2022-09-17T08:26:28;6.15;;;1.90;;
19057;SDS011;9662;53.612;9.914;2022-09-17T08:28:55;6.85;;;1.90;;
19057;SDS011;9662;53.612;9.914;2022-09-17T08:31:24;6.65;;;1.50;;
19057;SDS011;9662;53.612;9.914;2022-09-17T08:33:52;1.40;;;1.30;;
19057;SDS011;9662;53.612;9.914;2022-09-17T08:36:19;7.50;;;1.83;;
19057;SDS011;9662;53.612;9.914;2022-09-17T08:38:51;6.37;;;1.80;;
19057;SDS011;9662;53.612;9.914;2022-09-17T08:41:20;8.85;;;2.00;;
19057;SDS011;9662;53.612;9.914;2022-09-17T08:43:55;1.48;;;1.38;;
19057;SDS011;9662;53.612;9.914;2022-09-17T08:46:32;4.60;;;1.77;;
19057;SDS011;9662;53.612;9.914;2022-09-17T08:49:04;3.70;;;1.42;;
19057;SDS011;9662;53.612;9.914;2022-09-17T08:51:41;5.53;;;1.27;;
19057;SDS011;9662;53.612;9.914;2022-09-17T08:54:20;3.00;;;1.40;;
19057;SDS011;9662;53.612;9.914;2022-09-17T08:56:56;6.80;;;1.35;;
19057;SDS011;9662;53.612;9.914;2022-09-17T08:59:34;4.80;;;1.25;;
19057;SDS011;9662;53.612;9.914;2022-09-17T09:02:12;5.63;;;1.02;;
19057;SDS011;9662;53.612;9.914;2022-09-17T09:04:53;1.80;;;1.20;;
19057;SDS011;9662;53.612;9.914;2022-09-17T09:07:26;3.30;;;1.00;;
19057;SDS011;9662;53.612;9.914;2022-09-17T09:10:02;1.40;;;1.10;;
19057;SDS011;9662;53.612;9.914;2022-09-17T09:12:35;2.00;;;1.00;;
19057;SDS011;9662;53.612;9.914;2022-09-17T09:15:05;2.50;;;0.95;;
19057;SDS011;9662;53.612;9.914;2022-09-17T09:17:42;0.90;;;0.90;;
19057;SDS011;9662;53.612;9.914;2022-09-17T09:20:13;0.90;;;0.90;;
19057;SDS011;9662;53.612;9.914;2022-09-17T09:22:46;1.30;;;1.00;;
19057;SDS011;9662;53.612;9.914;2022-09-17T09:25:18;2.20;;;0.85;;
19057;SDS011;9662;53.612;9.914;2022-09-17T09:28:11;2.35;;;0.98;;
19057;SDS011;9662;53.612;9.914;2022-09-17T09:30:52;1.30;;;0.90;;
19057;SDS011;9662;53.612;9.914;2022-09-17T09:33:29;1.35;;;0.85;;
19057;SDS011;9662;53.612;9.914;2022-09-17T09:35:57;7.82;;;1.08;;
19057;SDS011;9662;53.612;9.914;2022-09-17T09:38:28;1.42;;;0.82;;
19057;SDS011;9662;53.612;9.914;2022-09-17T09:40:59;1.90;;;0.85;;
19057;SDS011;9662;53.612;9.914;2022-09-17T09:43:34;1.45;;;0.70;;
19057;SDS011;9662;53.612;9.914;2022-09-17T09:46:14;2.03;;;0.88;;
19057;SDS011;9662;53.612;9.914;2022-09-17T09:48:53;1.00;;;0.70;;
19057;SDS011;9662;53.612;9.914;2022-09-17T09:51:31;1.25;;;0.73;;
19057;SDS011;9662;53.612;9.914;2022-09-17T09:54:07;1.17;;;0.88;;
19057;SDS011;9662;53.612;9.914;2022-09-17T09:56:48;4.68;;;1.20;;
19057;SDS011;9662;53.612;9.914;2022-09-17T09:59:22;1.52;;;0.88;;
19057;SDS011;9662;53.612;9.914;2022-09-17T10:01:49;0.80;;;0.80;;
19057;SDS011;9662;53.612;9.914;2022-09-17T10:04:19;1.80;;;0.87;;
19057;SDS011;9662;53.612;9.914;2022-09-17T10:06:47;3.75;;;1.00;;
19057;SDS011;9662;53.612;9.914;2022-09-17T10:09:16;0.82;;;0.82;;
19057;SDS011;9662;53.612;9.914;2022-09-17T10:11:57;2.55;;;1.20;;
19057;SDS011;9662;53.612;9.914;2022-09-17T10:14:26;1.48;;;1.02;;
19057;SDS011;9662;53.612;9.914;2022-09-17T10:17:09;2.20;;;0.83;;
19057;SDS011;9662;53.612;9.914;2022-09-17T10:19:43;1.20;;;1.10;;
19057;SDS011;9662;53.612;9.914;2022-09-17T10:22:17;3.10;;;1.00;;
19057;SDS011;9662;53.612;9.914;2022-09-17T10:24:48;1.23;;;1.10;;
19057;SDS011;9662;53.612;9.914;2022-09-17T10:27:17;2.28;;;1.08;;
19057;SDS011;9662;53.612;9.914;2022-09-17T10:29:46;1.05;;;1.05;;
19057;SDS011;9662;53.612;9.914;2022-09-17T10:32:15;2.45;;;1.00;;
19057;SDS011;9662;53.612;9.914;2022-09-17T10:34:56;1.30;;;1.20;;
19057;SDS011;9662;53.612;9.914;2022-09-17T10:37:42;3.40;;;1.20;;
19057;SDS011;9662;53.612;9.914;2022-09-17T10:40:23;1.02;;;0.90;;
19057;SDS011;9662;53.612;9.914;2022-09-17T10:45:44;2.15;;;1.23;;
19057;SDS011;9662;53.612;9.914;2022-09-17T10:48:20;4.55;;;1.10;;
19057;SDS011;9662;53.612;9.914;2022-09-17T10:50:49;3.30;;;1.30;;
19057;SDS011;9662;53.612;9.914;2022-09-17T10:53:18;1.20;;;1.10;;
19057;SDS011;9662;53.612;9.914;2022-09-17T10:55:48;2.60;;;1.02;;
19057;SDS011;9662;53.612;9.914;2022-09-17T10:58:23;9.10;;;1.10;;
19057;SDS011;9662;53.612;9.914;2022-09-17T11:01:01;2.75;;;1.10;;
19057;SDS011;9662;53.612;9.914;2022-09-17T11:03:41;1.95;;;1.00;;
19057;SDS011;9662;53.612;9.914;2022-09-17T11:06:26;2.50;;;1.15;;
19057;SDS011;9662;53.612;9.914;2022-09-17T11:09:06;1.03;;;0.93;;
19057;SDS011;9662;53.612;9.914;2022-09-17T11:11:43;3.60;;;1.08;;
19057;SDS011;9662;53.612;9.914;2022-09-17T11:14:27;2.75;;;1.20;;
19057;SDS011;9662;53.612;9.914;2022-09-17T11:17:06;3.03;;;1.00;;
19057;SDS011;9662;53.612;9.914;2022-09-17T11:19:41;2.15;;;1.38;;
19057;SDS011;9662;53.612;9.914;2022-09-17T11:22:18;0.90;;;0.90;;
19057;SDS011;9662;53.612;9.914;2022-09-17T11:24:52;0.88;;;0.88;;
19057;SDS011;9662;53.612;9.914;2022-09-17T11:27:47;1.20;;;0.87;;
19057;SDS011;9662;53.612;9.914;2022-09-17T11:30:25;1.60;;;1.20;;
19057;SDS011;9662;53.612;9.914;2022-09-17T11:36:00;2.00;;;1.08;;
19057;SDS011;9662;53.612;9.914;2022-09-17T11:38:33;1.92;;;0.98;;
19057;SDS011;9662;53.612;9.914;2022-09-17T11:41:05;2.35;;;1.05;;
19057;SDS011;9662;53.612;9.914;2022-09-17T11:43:36;1.88;;;1.30;;
19057;SDS011;9662;53.612;9.914;2022-09-17T11:46:08;1.50;;;1.33;;
19057;SDS011;9662;53.612;9.914;2022-09-17T11:48:41;2.17;;;1.23;;
19057;SDS011;9662;53.612;9.914;2022-09-17T11:51:14;1.52;;;1.10;;
19057;SDS011;9662;53.612;9.914;2022-09-17T11:53:50;5.50;;;1.48;;
19057;SDS011;9662;53.612;9.914;2022-09-17T11:56:22;1.83;;;1.38;;
19057;SDS011;9662;53.612;9.914;2022-09-17T11:58:53;2.30;;;1.10;;
19057;SDS011;9662;53.612;9.914;2022-09-17T12:01:25;1.80;;;1.07;;
19057;SDS011;9662;53.612;9.914;2022-09-17T12:03:57;2.25;;;1.55;;
19057;SDS011;9662;53.612;9.914;2022-09-17T12:06:28;1.30;;;1.20;;
19057;SDS011;9662;53.612;9.914;2022-09-17T12:09:04;3.55;;;1.63;;
19057;SDS011;9662;53.612;9.914;2022-09-17T12:11:39;5.63;;;2.15;;
19057;SDS011;9662;53.612;9.914;2022-09-17T12:14:12;3.78;;;1.45;;
19057;SDS011;9662;53.612;9.914;2022-09-17T12:16:44;3.70;;;1.35;;
19057;SDS011;9662;53.612;9.914;2022-09-17T12:19:16;3.50;;;1.60;;
19057;SDS011;9662;53.612;9.914;2022-09-17T12:21:48;3.45;;;1.27;;
19057;SDS011;9662;53.612;9.914;2022-09-17T12:24:20;4.00;;;1.63;;
19057;SDS011;9662;53.612;9.914;2022-09-17T12:27:01;4.50;;;1.40;;
19057;SDS011;9662;53.612;9.914;2022-09-17T12:29:44;6.00;;;1.70;;
19057;SDS011;9662;53.612;9.914;2022-09-17T12:32:30;4.25;;;1.40;;
19057;SDS011;9662;53.612;9.914;2022-09-17T12:35:17;3.80;;;1.65;;
19057;SDS011;9662;53.612;9.914;2022-09-17T12:38:20;6.18;;;1.30;;
19057;SDS011;9662;53.612;9.914;2022-09-17T12:41:01;3.63;;;1.58;;
19057;SDS011;9662;53.612;9.914;2022-09-17T12:43:42;4.97;;;1.50;;
19057;SDS011;9662;53.612;9.914;2022-09-17T12:46:22;4.50;;;1.55;;
19057;SDS011;9662;53.612;9.914;2022-09-17T12:49:08;4.90;;;1.35;;
19057;SDS011;9662;53.612;9.914;2022-09-17T12:51:55;3.88;;;1.50;;
19057;SDS011;9662;53.612;9.914;2022-09-17T12:54:32;5.82;;;1.55;;
19057;SDS011;9662;53.612;9.914;2022-09-17T12:57:20;3.25;;;1.45;;
19057;SDS011;9662;53.612;9.914;2022-09-17T12:59:53;3.42;;;1.52;;
19057;SDS011;9662;53.612;9.914;2022-09-17T13:02:25;2.65;;;1.63;;
19057;SDS011;9662;53.612;9.914;2022-09-17T13:05:13;2.95;;;1.83;;
19057;SDS011;9662;53.612;9.914;2022-09-17T13:11:05;17.95;;;3.65;;
19057;SDS011;9662;53.612;9.914;2022-09-17T13:13:46;9.27;;;2.95;;
19057;SDS011;9662;53.612;9.914;2022-09-17T13:16:16;5.18;;;2.10;;
19057;SDS011;9662;53.612;9.914;2022-09-17T13:18:49;6.47;;;1.90;;
19057;SDS011;9662;53.612;9.914;2022-09-17T13:21:22;6.88;;;2.33;;
19057;SDS011;9662;53.612;9.914;2022-09-17T13:23:55;9.32;;;4.90;;
19057;SDS011;9662;53.612;9.914;2022-09-17T13:26:31;8.57;;;5.07;;
19057;SDS011;9662;53.612;9.914;2022-09-17T13:29:01;7.50;;;3.95;;
19057;SDS011;9662;53.612;9.914;2022-09-17T13:31:46;11.10;;;2.33;;
19057;SDS011;9662;53.612;9.914;2022-09-17T13:34:27;8.57;;;1.88;;
19057;SDS011;9662;53.612;9.914;2022-09-17T13:36:55;8.55;;;2.28;;
19057;SDS011;9662;53.612;9.914;2022-09-17T13:39:34;4.55;;;1.95;;
19057;SDS011;9662;53.612;9.914;2022-09-17T13:42:05;3.35;;;2.90;;
19057;SDS011;9662;53.612;9.914;2022-09-17T13:44:37;5.97;;;1.80;;
19057;SDS011;9662;53.612;9.914;2022-09-17T13:47:12;5.43;;;1.70;;
19057;SDS011;9662;53.612;9.914;2022-09-17T13:49:44;6.30;;;1.60;;
19057;SDS011;9662;53.612;9.914;2022-09-17T13:52:18;5.57;;;1.63;;
19057;SDS011;9662;53.612;9.914;2022-09-17T13:54:56;7.13;;;1.60;;
19057;SDS011;9662;53.612;9.914;2022-09-17T13:57:23;5.20;;;1.63;;
19057;SDS011;9662;53.612;9.914;2022-09-17T13:59:54;4.22;;;2.03;;
19057;SDS011;9662;53.612;9.914;2022-09-17T14:02:27;6.75;;;1.30;;
19057;SDS011;9662;53.612;9.914;2022-09-17T14:10:58;2.10;;;2.00;;
19057;SDS011;9662;53.612;9.914;2022-09-17T14:13:40;3.70;;;1.20;;
19057;SDS011;9662;53.612;9.914;2022-09-17T14:16:33;1.00;;;0.70;;
19057;SDS011;9662;53.612;9.914;2022-09-17T14:19:18;0.90;;;0.90;;
19057;SDS011;9662;53.612;9.914;2022-09-17T14:21:57;3.15;;;0.90;;
19057;SDS011;9662;53.612;9.914;2022-09-17T14:24:27;4.40;;;0.90;;
19057;SDS011;9662;53.612;9.914;2022-09-17T14:27:16;3.78;;;2.78;;
19057;SDS011;9662;53.612;9.914;2022-09-17T14:30:01;7.10;;;1.05;;
19057;SDS011;9662;53.612;9.914;2022-09-17T14:32:35;1.00;;;0.80;;
19057;SDS011;9662;53.612;9.914;2022-09-17T14:35:13;1.60;;;0.73;;
19057;SDS011;9662;53.612;9.914;2022-09-17T14:37:43;2.50;;;1.50;;
19057;SDS011;9662;53.612;9.914;2022-09-17T14:40:14;1.40;;;1.10;;
19057;SDS011;9662;53.612;9.914;2022-09-17T14:42:44;2.00;;;1.13;;
19057;SDS011;9662;53.612;9.914;2022-09-17T14:45:15;4.80;;;1.45;;
19057;SDS011;9662;53.612;9.914;2022-09-17T14:47:47;0.80;;;0.80;;
19057;SDS011;9662;53.612;9.914;2022-09-17T14:50:18;2.53;;;1.02;;
19057;SDS011;9662;53.612;9.914;2022-09-17T14:52:46;2.03;;;1.00;;
19057;SDS011;9662;53.612;9.914;2022-09-17T14:55:18;2.88;;;1.15;;
19057;SDS011;9662;53.612;9.914;2022-09-17T14:57:48;6.45;;;1.42;;
19057;SDS011;9662;53.612;9.914;2022-09-17T15:00:18;4.35;;;1.38;;
19057;SDS011;9662;53.612;9.914;2022-09-17T15:02:50;3.45;;;1.58;;
19057;SDS011;9662;53.612;9.914;2022-09-17T15:05:26;10.75;;;1.65;;
19057;SDS011;9662;53.612;9.914;2022-09-17T15:08:06;4.90;;;1.10;;
19057;SDS011;9662;53.612;9.914;2022-09-17T15:10:43;1.25;;;1.20;;
19057;SDS011;9662;53.612;9.914;2022-09-17T15:13:14;4.70;;;1.43;;
19057;SDS011;9662;53.612;9.914;2022-09-17T15:15:53;7.20;;;1.55;;
19057;SDS011;9662;53.612;9.914;2022-09-17T15:18:29;5.97;;;1.70;;
19057;SDS011;9662;53.612;9.914;2022-09-17T15:20:59;2.25;;;1.33;;
19057;SDS011;9662;53.612;9.914;2022-09-17T15:23:28;3.60;;;1.13;;
19057;SDS011;9662;53.612;9.914;2022-09-17T15:25:58;5.47;;;1.30;;
19057;SDS011;9662;53.612;9.914;2022-09-17T15:28:26;1.60;;;1.00;;
19057;SDS011;9662;53.612;9.914;2022-09-17T15:30:56;5.68;;;1.50;;
19057;SDS011;9662;53.612;9.914;2022-09-17T15:33:23;1.13;;;1.13;;
19057;SDS011;9662;53.612;9.914;2022-09-17T15:36:00;3.07;;;1.10;;
19057;SDS011;9662;53.612;9.914;2022-09-17T15:38:45;1.90;;;1.20;;
19057;SDS011;9662;53.612;9.914;2022-09-17T15:41:17;1.60;;;1.10;;
19057;SDS011;9662;53.612;9.914;2022-09-17T15:44:10;1.00;;;1.00;;
19057;SDS011;9662;53.612;9.914;2022-09-17T15:46:41;2.13;;;1.30;;